createdAt,value
2022-09-16T00:03:09.000Z,2.40
2022-09-16T00:08:12.771Z,2.40
2022-09-16T00:13:16.391Z,2.20
2022-09-16T00:18:24.395Z,2.40
2022-09-16T00:23:27.683Z,2.00
2022-09-16T00:28:30.985Z,2.70
2022-09-16T00:33:34.377Z,2.00
2022-09-16T00:38:37.738Z,2.10
2022-09-16T00:43:59.960Z,2.30
2022-09-16T00:49:07.505Z,2.00
2022-09-16T00:54:11.290Z,2.10
2022-09-16T00:59:18.062Z,2.10
2022-09-16T01:04:27.907Z,2.10
2022-09-16T01:09:32.033Z,1.60
2022-09-16T01:14:53.691Z,1.50
2022-09-16T01:20:06.425Z,1.50
2022-09-16T01:30:40.985Z,1.90
2022-09-16T01:36:26.139Z,1.40
2022-09-16T01:41:35.245Z,1.40
2022-09-16T01:46:46.662Z,1.70
2022-09-16T01:52:10.915Z,1.30
2022-09-16T01:57:58.470Z,1.70
2022-09-16T02:03:08.986Z,1.40
2022-09-16T02:08:26.880Z,1.50
2022-09-16T02:13:38.283Z,1.50
2022-09-16T02:18:42.936Z,1.00
2022-09-16T02:23:49.065Z,1.40
2022-09-16T02:28:53.754Z,1.50
2022-09-16T02:34:01.867Z,1.50
2022-09-16T02:39:09.663Z,1.50
2022-09-16T02:44:16.344Z,1.50
2022-09-16T02:49:41.255Z,1.60
2022-09-16T02:55:03.774Z,1.00
2022-09-16T03:00:08.172Z,1.60
2022-09-16T03:05:11.416Z,1.20
2022-09-16T03:10:15.410Z,1.00
2022-09-16T03:15:26.903Z,1.00
2022-09-16T03:20:33.473Z,1.70
2022-09-16T03:25:55.750Z,1.50
2022-09-16T03:31:32.941Z,1.00
2022-09-16T03:36:41.471Z,0.80
2022-09-16T03:41:45.427Z,1.00
2022-09-16T03:46:49.051Z,1.10
2022-09-16T03:51:52.343Z,0.80
2022-09-16T03:56:55.703Z,1.00
2022-09-16T04:01:59.486Z,1.30
2022-09-16T04:07:02.802Z,1.20
2022-09-16T04:12:07.895Z,0.90
2022-09-16T04:17:11.294Z,1.10
2022-09-16T04:22:14.598Z,1.70
2022-09-16T04:27:18.019Z,1.60
2022-09-16T04:32:21.780Z,1.20
2022-09-16T04:37:25.098Z,1.10
2022-09-16T04:42:28.313Z,1.30
2022-09-16T04:47:31.929Z,0.90
2022-09-16T04:52:35.448Z,1.10
2022-09-16T04:57:38.904Z,0.80
2022-09-16T05:02:46.032Z,0.90
2022-09-16T05:07:54.819Z,0.60
2022-09-16T05:12:58.132Z,1.10
2022-09-16T05:18:01.449Z,1.10
2022-09-16T05:23:04.888Z,1.20
2022-09-16T05:28:08.119Z,1.40
2022-09-16T05:33:11.378Z,1.20
2022-09-16T05:38:20.885Z,2.60
2022-09-16T05:43:28.467Z,3.50
2022-09-16T05:48:35.453Z,2.60
2022-09-16T05:53:40.561Z,2.00
2022-09-16T05:58:49.374Z,2.10
2022-09-16T06:03:56.686Z,2.30
2022-09-16T06:09:12.930Z,2.60
2022-09-16T06:14:22.959Z,1.80
2022-09-16T06:19:26.995Z,1.70
2022-09-16T06:24:31.106Z,1.80
2022-09-16T06:29:34.825Z,1.90
2022-09-16T06:34:38.072Z,2.10
2022-09-16T06:39:41.355Z,1.90
2022-09-16T06:44:44.758Z,1.60
2022-09-16T06:49:48.013Z,2.40
2022-09-16T06:54:52.245Z,2.00
2022-09-16T06:59:55.617Z,2.70
2022-09-16T07:04:58.934Z,2.50
2022-09-16T07:10:02.562Z,2.10
2022-09-16T07:15:06.226Z,1.60
2022-09-16T07:20:10.561Z,1.60
2022-09-16T07:25:13.962Z,1.50
2022-09-16T07:30:17.479Z,1.60
2022-09-16T07:35:21.014Z,1.90
2022-09-16T07:40:27.842Z,2.00
2022-09-16T07:45:33.073Z,1.50
2022-09-16T07:50:36.953Z,1.40
2022-09-16T07:55:40.827Z,1.80
2022-09-16T08:00:44.341Z,2.00
2022-09-16T08:05:48.298Z,1.70
2022-09-16T08:10:56.205Z,1.30
2022-09-16T08:16:08.986Z,1.40
2022-09-16T08:21:18.603Z,1.20
2022-09-16T08:26:22.749Z,1.80
2022-09-16T08:31:26.254Z,0.90
2022-09-16T08:36:30.183Z,1.50
2022-09-16T08:41:44.743Z,1.00
2022-09-16T08:46:56.007Z,1.20
2022-09-16T08:52:04.625Z,1.40
2022-09-16T08:57:15.338Z,1.40
2022-09-16T09:02:22.060Z,1.00
2022-09-16T09:07:38.456Z,0.80
2022-09-16T09:13:28.811Z,1.00
2022-09-16T09:18:32.336Z,0.80
2022-09-16T09:24:11.185Z,0.50
2022-09-16T09:29:22.561Z,0.70
2022-09-16T09:35:06.978Z,0.70
2022-09-16T09:40:14.079Z,0.60
2022-09-16T09:45:20.698Z,0.30
2022-09-16T09:50:26.328Z,0.60
2022-09-16T09:55:33.449Z,0.50
2022-09-16T10:00:36.817Z,0.50
2022-09-16T10:05:40.815Z,0.40
2022-09-16T10:10:51.100Z,0.50
2022-09-16T10:16:07.218Z,0.70
2022-09-16T10:21:13.736Z,0.80
2022-09-16T10:26:21.294Z,1.10
2022-09-16T10:31:32.028Z,0.70
2022-09-16T10:36:38.021Z,0.50
2022-09-16T10:41:47.220Z,0.60
2022-09-16T10:47:37.657Z,0.70
2022-09-16T10:52:53.069Z,0.80
2022-09-16T10:58:19.420Z,0.50
2022-09-16T11:03:55.930Z,0.50
2022-09-16T11:09:32.774Z,0.40
2022-09-16T11:14:55.954Z,0.70
2022-09-16T11:20:29.944Z,0.50
2022-09-16T11:25:57.953Z,0.40
2022-09-16T11:31:43.520Z,0.70
2022-09-16T11:37:07.497Z,0.40
2022-09-16T11:42:34.044Z,0.70
2022-09-16T11:48:21.202Z,0.80
2022-09-16T11:53:53.580Z,0.20
2022-09-16T11:59:23.097Z,0.50
2022-09-16T12:04:38.719Z,0.90
2022-09-16T12:10:21.941Z,0.30
2022-09-16T12:15:36.982Z,0.90
2022-09-16T12:21:15.029Z,0.80
2022-09-16T12:26:41.942Z,1.10
2022-09-16T12:32:09.069Z,0.50
2022-09-16T12:48:18.091Z,0.40
2022-09-16T12:53:56.690Z,0.30
2022-09-16T12:59:45.389Z,0.40
2022-09-16T13:04:59.334Z,0.40
2022-09-16T13:10:10.927Z,0.40
2022-09-16T13:15:25.104Z,0.40
2022-09-16T13:20:34.176Z,0.40
2022-09-16T13:25:51.959Z,0.30
2022-09-16T13:31:01.176Z,0.40
2022-09-16T13:36:33.688Z,0.30
2022-09-16T13:41:41.001Z,0.30
2022-09-16T13:46:48.308Z,0.30
2022-09-16T13:51:55.431Z,0.30
2022-09-16T13:57:19.216Z,0.20
2022-09-16T14:03:07.137Z,0.20
2022-09-16T14:08:42.037Z,0.20
2022-09-16T14:13:51.694Z,0.20
2022-09-16T14:19:38.309Z,0.20
2022-09-16T14:24:42.844Z,0.20
2022-09-16T14:30:23.189Z,0.10
2022-09-16T14:35:49.469Z,0.60
2022-09-16T14:41:17.889Z,0.10
2022-09-16T14:46:38.895Z,0.30
2022-09-16T14:57:36.262Z,0.20
2022-09-16T15:02:55.249Z,0.30
2022-09-16T15:08:33.956Z,0.30
2022-09-16T15:14:10.610Z,0.10
2022-09-16T15:19:33.245Z,0.20
2022-09-16T15:24:41.593Z,0.40
2022-09-16T15:36:00.989Z,0.30
2022-09-16T15:41:27.179Z,0.20
2022-09-16T15:46:49.904Z,0.50
2022-09-16T15:52:11.830Z,0.50
2022-09-16T15:57:41.801Z,0.70
2022-09-16T16:03:17.926Z,0.50
2022-09-16T16:08:42.471Z,0.80
2022-09-16T16:13:58.619Z,0.40
2022-09-16T16:19:09.401Z,1.10
2022-09-16T16:24:24.906Z,1.10
2022-09-16T16:29:35.529Z,1.10
2022-09-16T16:34:58.475Z,0.40
2022-09-16T16:40:37.727Z,1.30
2022-09-16T16:46:07.297Z,0.90
2022-09-16T16:51:48.898Z,1.20
2022-09-16T16:57:10.474Z,2.50
2022-09-16T17:07:40.715Z,12.70
2022-09-16T17:12:51.309Z,12.30
2022-09-16T17:23:26.518Z,8.30
2022-09-16T17:28:44.647Z,5.10
2022-09-16T17:33:54.188Z,5.30
2022-09-16T17:39:09.266Z,4.20
2022-09-16T17:44:17.842Z,4.60
2022-09-16T17:49:27.467Z,4.60
2022-09-16T17:54:32.185Z,4.20
2022-09-16T17:59:36.051Z,4.50
2022-09-16T18:04:43.791Z,3.80
2022-09-16T18:09:49.843Z,3.50
2022-09-16T18:14:59.908Z,3.50
2022-09-16T18:20:13.038Z,3.20
2022-09-16T18:25:16.590Z,2.80
2022-09-16T18:30:20.369Z,3.70
2022-09-16T18:35:32.032Z,5.00
2022-09-16T18:40:41.207Z,6.40
2022-09-16T18:45:50.132Z,4.20
2022-09-16T18:51:08.126Z,3.10
2022-09-16T18:56:23.548Z,2.80
2022-09-16T19:01:40.593Z,2.10
2022-09-16T19:06:52.586Z,2.30
2022-09-16T19:12:38.480Z,1.50
2022-09-16T19:17:51.566Z,2.80
2022-09-16T19:23:10.721Z,1.50
2022-09-16T19:28:28.332Z,1.60
2022-09-16T19:33:37.903Z,1.40
2022-09-16T19:39:13.255Z,1.50
2022-09-16T19:50:49.840Z,2.90
2022-09-16T19:56:25.778Z,1.80
2022-09-16T20:01:45.168Z,1.60
2022-09-16T20:06:55.170Z,1.30
2022-09-16T20:12:05.005Z,1.30
2022-09-16T20:17:27.147Z,1.40
2022-09-16T20:22:35.335Z,1.20
2022-09-16T20:27:38.690Z,1.10
2022-09-16T20:32:41.925Z,2.40
2022-09-16T20:37:48.384Z,2.10
2022-09-16T20:42:51.793Z,1.30
2022-09-16T20:47:55.055Z,2.30
2022-09-16T20:53:02.235Z,1.50
2022-09-16T20:58:07.672Z,2.40
2022-09-16T21:03:14.243Z,3.20
2022-09-16T21:08:17.514Z,3.00
2022-09-16T21:13:25.251Z,3.30
2022-09-16T21:18:30.846Z,2.00
2022-09-16T21:23:35.077Z,2.00
2022-09-16T21:28:38.972Z,2.60
2022-09-16T21:33:44.231Z,3.70
2022-09-16T21:38:59.639Z,3.90
2022-09-16T21:44:08.364Z,4.00
2022-09-16T21:49:20.158Z,4.20
2022-09-16T21:54:24.617Z,3.50
2022-09-16T21:59:28.816Z,2.80
2022-09-16T22:04:32.038Z,3.80
2022-09-16T22:09:35.347Z,3.20
2022-09-16T22:14:47.676Z,2.60
2022-09-16T22:19:51.290Z,3.30
2022-09-16T22:24:56.266Z,2.20
2022-09-16T22:30:01.079Z,2.10
2022-09-16T22:35:05.946Z,1.90
2022-09-16T22:40:10.966Z,2.20
2022-09-16T22:45:45.593Z,1.90
2022-09-16T22:51:27.281Z,1.70
2022-09-16T22:56:33.923Z,1.90
2022-09-16T23:01:40.489Z,2.10
2022-09-16T23:06:45.476Z,2.40
2022-09-16T23:11:52.373Z,2.30
2022-09-16T23:16:58.314Z,2.40
2022-09-16T23:22:02.525Z,2.20
2022-09-16T23:27:22.524Z,2.60
2022-09-16T23:32:27.567Z,2.00
2022-09-16T23:37:36.872Z,2.10
2022-09-16T23:42:41.168Z,2.60
2022-09-16T23:47:44.452Z,2.60
2022-09-16T23:52:48.473Z,2.30
2022-09-16T23:57:51.683Z,2.40
